sensor_id;sensor_type;location;lat;lon;timestamp;P1;durP1;ratioP1;P2;durP2;ratioP2
55220;SDS011;41089;51.448;6.604;2022-07-18T00:03:08;4.47;;;2.47;;
55220;SDS011;41089;51.448;6.604;2022-07-18T00:09:09;4.85;;;2.70;;
55220;SDS011;41089;51.448;6.604;2022-07-18T00:15:09;5.20;;;2.23;;
55220;SDS011;41089;51.448;6.604;2022-07-18T00:21:10;4.00;;;2.25;;
55220;SDS011;41089;51.448;6.604;2022-07-18T00:27:11;3.38;;;2.15;;
55220;SDS011;41089;51.448;6.604;2022-07-18T00:33:11;4.73;;;2.70;;
55220;SDS011;41089;51.448;6.604;2022-07-18T00:39:12;3.57;;;2.00;;
55220;SDS011;41089;51.448;6.604;2022-07-18T00:45:12;3.70;;;2.20;;
55220;SDS011;41089;51.448;6.604;2022-07-18T00:51:12;7.43;;;2.28;;
55220;SDS011;41089;51.448;6.604;2022-07-18T00:57:13;4.43;;;1.90;;
55220;SDS011;41089;51.448;6.604;2022-07-18T01:03:13;3.00;;;1.83;;
55220;SDS011;41089;51.448;6.604;2022-07-18T01:09:15;4.80;;;2.00;;
55220;SDS011;41089;51.448;6.604;2022-07-18T01:15:16;6.30;;;2.25;;
55220;SDS011;41089;51.448;6.604;2022-07-18T01:21:17;5.10;;;2.15;;
55220;SDS011;41089;51.448;6.604;2022-07-18T01:27:18;4.38;;;1.90;;
55220;SDS011;41089;51.448;6.604;2022-07-18T01:33:20;5.28;;;2.47;;
55220;SDS011;41089;51.448;6.604;2022-07-18T01:39:21;5.53;;;2.03;;
55220;SDS011;41089;51.448;6.604;2022-07-18T01:45:21;3.85;;;2.30;;
55220;SDS011;41089;51.448;6.604;2022-07-18T01:51:22;4.67;;;2.10;;
55220;SDS011;41089;51.448;6.604;2022-07-18T01:57:22;3.22;;;2.70;;
55220;SDS011;41089;51.448;6.604;2022-07-18T02:03:23;6.90;;;2.50;;
55220;SDS011;41089;51.448;6.604;2022-07-18T02:09:24;5.67;;;2.53;;
55220;SDS011;41089;51.448;6.604;2022-07-18T02:15:24;4.50;;;2.25;;
55220;SDS011;41089;51.448;6.604;2022-07-18T02:21:25;6.50;;;2.37;;
55220;SDS011;41089;51.448;6.604;2022-07-18T02:27:25;5.67;;;2.93;;
55220;SDS011;41089;51.448;6.604;2022-07-18T02:33:25;3.77;;;2.07;;
55220;SDS011;41089;51.448;6.604;2022-07-18T02:39:26;5.32;;;2.20;;
55220;SDS011;41089;51.448;6.604;2022-07-18T02:45:26;3.58;;;2.30;;
55220;SDS011;41089;51.448;6.604;2022-07-18T02:51:27;3.83;;;2.37;;
55220;SDS011;41089;51.448;6.604;2022-07-18T02:57:27;5.22;;;2.50;;
55220;SDS011;41089;51.448;6.604;2022-07-18T03:03:28;5.18;;;2.22;;
55220;SDS011;41089;51.448;6.604;2022-07-18T03:09:29;5.90;;;2.38;;
55220;SDS011;41089;51.448;6.604;2022-07-18T03:15:30;5.35;;;2.30;;
55220;SDS011;41089;51.448;6.604;2022-07-18T03:21:31;5.57;;;2.27;;
55220;SDS011;41089;51.448;6.604;2022-07-18T03:27:31;7.88;;;2.63;;
55220;SDS011;41089;51.448;6.604;2022-07-18T03:33:31;5.60;;;2.47;;
55220;SDS011;41089;51.448;6.604;2022-07-18T03:39:32;5.50;;;2.50;;
55220;SDS011;41089;51.448;6.604;2022-07-18T03:45:32;4.10;;;3.00;;
55220;SDS011;41089;51.448;6.604;2022-07-18T03:51:32;4.38;;;2.45;;
55220;SDS011;41089;51.448;6.604;2022-07-18T03:57:33;4.70;;;2.43;;
55220;SDS011;41089;51.448;6.604;2022-07-18T04:03:33;4.20;;;2.27;;
55220;SDS011;41089;51.448;6.604;2022-07-18T04:09:34;4.07;;;2.50;;
55220;SDS011;41089;51.448;6.604;2022-07-18T04:15:34;5.03;;;2.13;;
55220;SDS011;41089;51.448;6.604;2022-07-18T04:21:36;7.28;;;2.50;;
55220;SDS011;41089;51.448;6.604;2022-07-18T04:27:36;6.40;;;3.07;;
55220;SDS011;41089;51.448;6.604;2022-07-18T04:33:36;6.00;;;2.17;;
55220;SDS011;41089;51.448;6.604;2022-07-18T04:39:37;4.72;;;2.08;;
55220;SDS011;41089;51.448;6.604;2022-07-18T04:45:37;7.55;;;2.78;;
55220;SDS011;41089;51.448;6.604;2022-07-18T04:51:37;7.90;;;2.60;;
55220;SDS011;41089;51.448;6.604;2022-07-18T04:57:38;6.53;;;2.97;;
55220;SDS011;41089;51.448;6.604;2022-07-18T05:03:38;6.50;;;3.05;;
55220;SDS011;41089;51.448;6.604;2022-07-18T05:09:39;5.63;;;2.43;;
55220;SDS011;41089;51.448;6.604;2022-07-18T05:15:39;4.20;;;2.47;;
55220;SDS011;41089;51.448;6.604;2022-07-18T05:21:40;3.47;;;1.90;;
55220;SDS011;41089;51.448;6.604;2022-07-18T05:27:41;4.53;;;2.10;;
55220;SDS011;41089;51.448;6.604;2022-07-18T05:33:41;7.25;;;3.00;;
55220;SDS011;41089;51.448;6.604;2022-07-18T05:39:42;6.22;;;1.98;;
55220;SDS011;41089;51.448;6.604;2022-07-18T05:45:42;4.17;;;2.13;;
55220;SDS011;41089;51.448;6.604;2022-07-18T05:51:43;8.30;;;2.10;;
55220;SDS011;41089;51.448;6.604;2022-07-18T05:57:43;6.90;;;2.15;;
55220;SDS011;41089;51.448;6.604;2022-07-18T06:03:44;6.60;;;1.88;;
55220;SDS011;41089;51.448;6.604;2022-07-18T06:09:44;11.43;;;2.65;;
55220;SDS011;41089;51.448;6.604;2022-07-18T06:15:45;10.23;;;2.73;;
55220;SDS011;41089;51.448;6.604;2022-07-18T06:21:45;8.57;;;2.55;;
55220;SDS011;41089;51.448;6.604;2022-07-18T06:27:46;7.53;;;3.05;;
55220;SDS011;41089;51.448;6.604;2022-07-18T06:33:46;11.30;;;2.77;;
55220;SDS011;41089;51.448;6.604;2022-07-18T06:39:47;11.15;;;3.10;;
55220;SDS011;41089;51.448;6.604;2022-07-18T06:45:47;8.43;;;2.30;;
55220;SDS011;41089;51.448;6.604;2022-07-18T06:51:48;4.05;;;1.42;;
55220;SDS011;41089;51.448;6.604;2022-07-18T06:57:49;4.60;;;1.80;;
55220;SDS011;41089;51.448;6.604;2022-07-18T07:03:50;4.25;;;1.75;;
55220;SDS011;41089;51.448;6.604;2022-07-18T07:09:51;5.70;;;1.93;;
55220;SDS011;41089;51.448;6.604;2022-07-18T07:15:51;4.78;;;1.75;;
55220;SDS011;41089;51.448;6.604;2022-07-18T07:21:52;3.42;;;1.58;;
55220;SDS011;41089;51.448;6.604;2022-07-18T07:27:53;3.22;;;1.65;;
55220;SDS011;41089;51.448;6.604;2022-07-18T07:33:53;4.53;;;1.52;;
55220;SDS011;41089;51.448;6.604;2022-07-18T07:39:54;3.17;;;2.10;;
55220;SDS011;41089;51.448;6.604;2022-07-18T07:45:55;3.33;;;1.42;;
55220;SDS011;41089;51.448;6.604;2022-07-18T07:51:56;4.20;;;1.80;;
55220;SDS011;41089;51.448;6.604;2022-07-18T07:57:56;4.70;;;1.65;;
55220;SDS011;41089;51.448;6.604;2022-07-18T08:03:56;2.60;;;1.53;;
55220;SDS011;41089;51.448;6.604;2022-07-18T08:09:57;5.00;;;2.22;;
55220;SDS011;41089;51.448;6.604;2022-07-18T08:15:57;3.25;;;1.60;;
55220;SDS011;41089;51.448;6.604;2022-07-18T08:21:58;6.00;;;2.10;;
55220;SDS011;41089;51.448;6.604;2022-07-18T08:27:59;3.63;;;1.90;;
55220;SDS011;41089;51.448;6.604;2022-07-18T08:34:00;6.38;;;2.10;;
55220;SDS011;41089;51.448;6.604;2022-07-18T08:40:00;4.13;;;1.92;;
55220;SDS011;41089;51.448;6.604;2022-07-18T08:46:02;5.87;;;2.07;;
55220;SDS011;41089;51.448;6.604;2022-07-18T08:52:04;3.83;;;2.13;;
55220;SDS011;41089;51.448;6.604;2022-07-18T08:58:05;6.43;;;2.45;;
55220;SDS011;41089;51.448;6.604;2022-07-18T09:04:05;4.50;;;1.92;;
55220;SDS011;41089;51.448;6.604;2022-07-18T09:10:15;5.20;;;1.88;;
55220;SDS011;41089;51.448;6.604;2022-07-18T09:16:16;3.72;;;1.75;;
55220;SDS011;41089;51.448;6.604;2022-07-18T09:22:20;4.93;;;1.90;;
55220;SDS011;41089;51.448;6.604;2022-07-18T09:28:21;2.92;;;2.08;;
55220;SDS011;41089;51.448;6.604;2022-07-18T09:34:35;2.50;;;1.70;;
55220;SDS011;41089;51.448;6.604;2022-07-18T09:40:41;3.92;;;1.50;;
55220;SDS011;41089;51.448;6.604;2022-07-18T09:46:58;3.17;;;1.60;;
55220;SDS011;41089;51.448;6.604;2022-07-18T09:53:10;2.45;;;1.45;;
55220;SDS011;41089;51.448;6.604;2022-07-18T09:59:14;1.95;;;1.60;;
55220;SDS011;41089;51.448;6.604;2022-07-18T10:05:15;4.47;;;1.63;;
55220;SDS011;41089;51.448;6.604;2022-07-18T10:11:15;4.93;;;1.70;;
55220;SDS011;41089;51.448;6.604;2022-07-18T10:17:16;3.15;;;1.65;;
55220;SDS011;41089;51.448;6.604;2022-07-18T10:29:28;6.25;;;1.70;;
55220;SDS011;41089;51.448;6.604;2022-07-18T10:47:58;3.47;;;1.67;;
55220;SDS011;41089;51.448;6.604;2022-07-18T10:54:06;3.65;;;1.52;;
55220;SDS011;41089;51.448;6.604;2022-07-18T11:06:08;5.80;;;1.58;;
55220;SDS011;41089;51.448;6.604;2022-07-18T11:12:23;4.00;;;1.85;;
55220;SDS011;41089;51.448;6.604;2022-07-18T11:18:25;4.75;;;1.73;;
55220;SDS011;41089;51.448;6.604;2022-07-18T11:24:26;4.70;;;1.90;;
55220;SDS011;41089;51.448;6.604;2022-07-18T11:30:27;3.53;;;1.63;;
55220;SDS011;41089;51.448;6.604;2022-07-18T11:36:28;3.83;;;1.83;;
55220;SDS011;41089;51.448;6.604;2022-07-18T11:42:39;3.10;;;1.70;;
55220;SDS011;41089;51.448;6.604;2022-07-18T11:48:40;5.75;;;1.98;;
55220;SDS011;41089;51.448;6.604;2022-07-18T11:54:42;4.10;;;2.15;;
55220;SDS011;41089;51.448;6.604;2022-07-18T12:00:42;5.45;;;2.20;;
55220;SDS011;41089;51.448;6.604;2022-07-18T12:06:43;5.00;;;2.38;;
55220;SDS011;41089;51.448;6.604;2022-07-18T12:12:44;3.60;;;2.00;;
55220;SDS011;41089;51.448;6.604;2022-07-18T12:18:57;6.03;;;2.00;;
55220;SDS011;41089;51.448;6.604;2022-07-18T12:24:57;5.28;;;2.10;;
55220;SDS011;41089;51.448;6.604;2022-07-18T12:31:01;3.40;;;1.90;;
55220;SDS011;41089;51.448;6.604;2022-07-18T12:37:01;7.70;;;1.70;;
55220;SDS011;41089;51.448;6.604;2022-07-18T12:43:04;3.58;;;2.03;;
55220;SDS011;41089;51.448;6.604;2022-07-18T12:49:06;4.00;;;2.13;;
55220;SDS011;41089;51.448;6.604;2022-07-18T12:55:06;3.75;;;1.85;;
55220;SDS011;41089;51.448;6.604;2022-07-18T13:01:07;4.50;;;1.90;;
55220;SDS011;41089;51.448;6.604;2022-07-18T13:07:07;6.00;;;2.30;;
55220;SDS011;41089;51.448;6.604;2022-07-18T13:13:08;8.20;;;2.07;;
55220;SDS011;41089;51.448;6.604;2022-07-18T13:19:09;3.60;;;1.85;;
55220;SDS011;41089;51.448;6.604;2022-07-18T13:25:09;4.07;;;1.80;;
55220;SDS011;41089;51.448;6.604;2022-07-18T13:31:10;5.07;;;1.85;;
55220;SDS011;41089;51.448;6.604;2022-07-18T13:37:10;5.30;;;2.03;;
55220;SDS011;41089;51.448;6.604;2022-07-18T13:43:11;4.45;;;2.00;;
55220;SDS011;41089;51.448;6.604;2022-07-18T13:49:11;4.33;;;1.90;;
55220;SDS011;41089;51.448;6.604;2022-07-18T13:55:12;2.00;;;1.80;;
55220;SDS011;41089;51.448;6.604;2022-07-18T14:01:13;2.13;;;1.77;;
55220;SDS011;41089;51.448;6.604;2022-07-18T14:07:13;6.85;;;2.00;;
55220;SDS011;41089;51.448;6.604;2022-07-18T14:13:17;3.53;;;2.10;;
55220;SDS011;41089;51.448;6.604;2022-07-18T14:19:17;2.45;;;2.00;;
55220;SDS011;41089;51.448;6.604;2022-07-18T14:25:19;2.95;;;1.67;;
55220;SDS011;41089;51.448;6.604;2022-07-18T14:31:20;2.57;;;1.97;;
55220;SDS011;41089;51.448;6.604;2022-07-18T14:37:20;3.43;;;1.83;;
55220;SDS011;41089;51.448;6.604;2022-07-18T14:43:21;4.23;;;1.90;;
55220;SDS011;41089;51.448;6.604;2022-07-18T14:49:21;3.90;;;1.70;;
55220;SDS011;41089;51.448;6.604;2022-07-18T14:55:23;1.63;;;1.50;;
55220;SDS011;41089;51.448;6.604;2022-07-18T15:01:23;3.92;;;1.70;;
55220;SDS011;41089;51.448;6.604;2022-07-18T15:07:24;5.53;;;1.92;;
55220;SDS011;41089;51.448;6.604;2022-07-18T15:13:24;2.70;;;1.88;;
55220;SDS011;41089;51.448;6.604;2022-07-18T15:19:25;4.15;;;1.88;;
55220;SDS011;41089;51.448;6.604;2022-07-18T15:25:25;2.40;;;1.80;;
55220;SDS011;41089;51.448;6.604;2022-07-18T15:31:26;2.47;;;1.80;;
55220;SDS011;41089;51.448;6.604;2022-07-18T15:37:26;2.55;;;1.77;;
55220;SDS011;41089;51.448;6.604;2022-07-18T15:43:27;5.00;;;2.03;;
55220;SDS011;41089;51.448;6.604;2022-07-18T15:49:27;4.97;;;3.47;;
55220;SDS011;41089;51.448;6.604;2022-07-18T15:55:28;2.85;;;1.85;;
55220;SDS011;41089;51.448;6.604;2022-07-18T16:01:29;4.80;;;1.88;;
55220;SDS011;41089;51.448;6.604;2022-07-18T16:07:30;4.50;;;2.73;;
55220;SDS011;41089;51.448;6.604;2022-07-18T16:13:30;4.23;;;1.67;;
55220;SDS011;41089;51.448;6.604;2022-07-18T16:19:31;4.63;;;1.90;;
55220;SDS011;41089;51.448;6.604;2022-07-18T16:25:31;4.73;;;1.70;;
55220;SDS011;41089;51.448;6.604;2022-07-18T16:31:32;3.38;;;1.80;;
55220;SDS011;41089;51.448;6.604;2022-07-18T16:37:34;2.78;;;1.67;;
55220;SDS011;41089;51.448;6.604;2022-07-18T16:43:34;2.87;;;1.93;;
55220;SDS011;41089;51.448;6.604;2022-07-18T16:49:35;3.70;;;1.77;;
55220;SDS011;41089;51.448;6.604;2022-07-18T16:55:37;4.32;;;2.00;;
55220;SDS011;41089;51.448;6.604;2022-07-18T17:01:38;4.25;;;2.00;;
55220;SDS011;41089;51.448;6.604;2022-07-18T17:07:39;4.53;;;1.73;;
55220;SDS011;41089;51.448;6.604;2022-07-18T17:13:41;2.22;;;2.03;;
55220;SDS011;41089;51.448;6.604;2022-07-18T17:19:41;4.40;;;1.75;;
55220;SDS011;41089;51.448;6.604;2022-07-18T17:25:42;1.80;;;1.63;;
55220;SDS011;41089;51.448;6.604;2022-07-18T17:31:43;4.65;;;2.25;;
55220;SDS011;41089;51.448;6.604;2022-07-18T17:37:43;3.65;;;1.70;;
55220;SDS011;41089;51.448;6.604;2022-07-18T17:43:45;3.17;;;1.73;;
55220;SDS011;41089;51.448;6.604;2022-07-18T17:49:49;6.38;;;2.17;;
55220;SDS011;41089;51.448;6.604;2022-07-18T17:55:50;5.07;;;2.30;;
55220;SDS011;41089;51.448;6.604;2022-07-18T18:01:51;7.72;;;2.47;;
55220;SDS011;41089;51.448;6.604;2022-07-18T18:07:51;6.10;;;2.40;;
55220;SDS011;41089;51.448;6.604;2022-07-18T18:13:52;2.87;;;2.10;;
55220;SDS011;41089;51.448;6.604;2022-07-18T18:19:52;3.57;;;1.90;;
55220;SDS011;41089;51.448;6.604;2022-07-18T18:25:53;2.70;;;2.00;;
55220;SDS011;41089;51.448;6.604;2022-07-18T18:31:53;4.32;;;1.98;;
55220;SDS011;41089;51.448;6.604;2022-07-18T18:37:57;2.47;;;1.98;;
55220;SDS011;41089;51.448;6.604;2022-07-18T18:43:57;4.60;;;2.30;;
55220;SDS011;41089;51.448;6.604;2022-07-18T18:49:58;3.83;;;2.10;;
55220;SDS011;41089;51.448;6.604;2022-07-18T18:55:58;3.35;;;2.20;;
55220;SDS011;41089;51.448;6.604;2022-07-18T19:01:58;4.38;;;2.33;;
55220;SDS011;41089;51.448;6.604;2022-07-18T19:07:59;5.23;;;2.30;;
55220;SDS011;41089;51.448;6.604;2022-07-18T19:14:00;3.17;;;2.28;;
55220;SDS011;41089;51.448;6.604;2022-07-18T19:20:01;3.17;;;2.33;;
55220;SDS011;41089;51.448;6.604;2022-07-18T19:26:02;5.35;;;2.38;;
55220;SDS011;41089;51.448;6.604;2022-07-18T19:32:02;5.50;;;2.63;;
55220;SDS011;41089;51.448;6.604;2022-07-18T19:38:03;6.28;;;2.97;;
55220;SDS011;41089;51.448;6.604;2022-07-18T19:44:03;4.65;;;2.45;;
55220;SDS011;41089;51.448;6.604;2022-07-18T19:50:07;5.75;;;2.65;;
55220;SDS011;41089;51.448;6.604;2022-07-18T19:56:08;7.60;;;2.97;;
55220;SDS011;41089;51.448;6.604;2022-07-18T20:02:08;8.07;;;3.23;;
55220;SDS011;41089;51.448;6.604;2022-07-18T20:08:09;4.13;;;2.53;;
55220;SDS011;41089;51.448;6.604;2022-07-18T20:14:12;5.45;;;2.90;;
55220;SDS011;41089;51.448;6.604;2022-07-18T20:20:12;6.00;;;2.70;;
55220;SDS011;41089;51.448;6.604;2022-07-18T20:26:13;3.23;;;2.37;;
55220;SDS011;41089;51.448;6.604;2022-07-18T20:32:13;6.27;;;2.60;;
55220;SDS011;41089;51.448;6.604;2022-07-18T20:38:14;3.80;;;2.88;;
55220;SDS011;41089;51.448;6.604;2022-07-18T20:44:15;6.07;;;2.65;;
55220;SDS011;41089;51.448;6.604;2022-07-18T20:50:15;4.43;;;2.97;;
55220;SDS011;41089;51.448;6.604;2022-07-18T20:56:16;6.23;;;2.90;;
55220;SDS011;41089;51.448;6.604;2022-07-18T21:02:16;6.50;;;3.47;;
55220;SDS011;41089;51.448;6.604;2022-07-18T21:08:16;6.27;;;2.73;;
55220;SDS011;41089;51.448;6.604;2022-07-18T21:14:17;6.43;;;2.83;;
55220;SDS011;41089;51.448;6.604;2022-07-18T21:20:36;3.60;;;2.45;;
55220;SDS011;41089;51.448;6.604;2022-07-18T21:26:36;4.87;;;3.27;;
55220;SDS011;41089;51.448;6.604;2022-07-18T21:32:37;5.55;;;2.90;;
55220;SDS011;41089;51.448;6.604;2022-07-18T21:38:37;4.30;;;2.47;;
55220;SDS011;41089;51.448;6.604;2022-07-18T21:44:38;3.83;;;2.25;;
55220;SDS011;41089;51.448;6.604;2022-07-18T21:50:38;3.83;;;2.80;;
55220;SDS011;41089;51.448;6.604;2022-07-18T21:56:39;3.83;;;3.00;;
55220;SDS011;41089;51.448;6.604;2022-07-18T22:02:39;6.57;;;2.73;;
55220;SDS011;41089;51.448;6.604;2022-07-18T22:08:40;5.20;;;2.63;;
55220;SDS011;41089;51.448;6.604;2022-07-18T22:14:40;9.90;;;2.97;;
55220;SDS011;41089;51.448;6.604;2022-07-18T22:20:40;8.93;;;3.58;;
55220;SDS011;41089;51.448;6.604;2022-07-18T22:26:41;6.73;;;3.17;;
55220;SDS011;41089;51.448;6.604;2022-07-18T22:32:41;7.60;;;3.20;;
55220;SDS011;41089;51.448;6.604;2022-07-18T22:38:42;4.80;;;3.05;;
55220;SDS011;41089;51.448;6.604;2022-07-18T22:44:43;7.35;;;3.40;;
55220;SDS011;41089;51.448;6.604;2022-07-18T22:50:43;6.00;;;3.55;;
55220;SDS011;41089;51.448;6.604;2022-07-18T22:56:43;4.68;;;3.55;;
55220;SDS011;41089;51.448;6.604;2022-07-18T23:02:44;5.10;;;3.00;;
55220;SDS011;41089;51.448;6.604;2022-07-18T23:08:44;5.25;;;2.95;;
55220;SDS011;41089;51.448;6.604;2022-07-18T23:14:45;5.00;;;2.73;;
55220;SDS011;41089;51.448;6.604;2022-07-18T23:20:45;4.40;;;2.70;;
55220;SDS011;41089;51.448;6.604;2022-07-18T23:26:45;7.70;;;2.92;;
55220;SDS011;41089;51.448;6.604;2022-07-18T23:32:46;4.72;;;2.88;;
55220;SDS011;41089;51.448;6.604;2022-07-18T23:38:47;6.50;;;3.25;;
55220;SDS011;41089;51.448;6.604;2022-07-18T23:44:47;6.55;;;3.45;;
55220;SDS011;41089;51.448;6.604;2022-07-18T23:50:48;7.40;;;4.00;;
55220;SDS011;41089;51.448;6.604;2022-07-18T23:56:48;9.27;;;3.80;;
